Iraucuba, Brazil
Current Conditions -  °F | °C
As of 12:00 PM on Saturday 25 Oct 2014 (Local Time) from SBFZ Reporting Station
Few Clouds Few Clouds  
Wind Chill: 86°   Ceiling: Unl
Heat Index: 87°   Visibility: 6mi
Dew Point: 63°   Wind: 20mph
Humidity: 45%   Direction: 110°ESE
Pressure: 29.88"   Gusts: NA
Location:  3.75°S, 39.78°W
Report Text: SBFZ 251500Z 11017KT 9999 FEW030 30/17 Q1012
Loading
Personal Weather Stations






























Interactive Weather Map
Tropical Storm Tracking
New forecast layout! Learn more

10-Day Weather Forecast

Advertisements
Track Severe Weather on mobile